Portada
METAR-TAF:

METAR-TAF

Aeroports :

Moose Lake Carlton County Airport

Moose Lake, Minnesota, Estats Units d'Amèrica

latitud: 46-25N, longitud: 092-48W, altitud: 328 m

Observació

L'informe es va fer fa 11 minuts, a les 18:15 UTC
Vent 8 kt del Oest/Sud-Oest
Temperatura 27°C
Humitat 51%
Pressió 1006 hPa
Visibilitat: 16.1 km
Núvols disperses a una alçada de 4600 ft
Núvols disperses a una alçada de 5000 ft

METAR: KMZH 251815Z AUTO 24008KT 10SM SCT046 SCT050 27/16 A2970 RMK AO2

Hora: 13:26 (18:26 UTC)


TAF: manca

Observacions i pronòstics meteorològics de més de 4000 aeroports (METAR i TAF).

Les estacions disponibles són els punts grocs i vermells al mapa.

Posi el ratolí al punt desitjat per veure el nom de l'estació.

Feu clic per veure les observacions i els pronòstics meteorològics.

Per canviar el mapa: feu clic els botons verds amb una creu de color negre per apropar; al botó verd amb un guió per allunyar la imatge; o en les fletxes verdes per a mapes adjacents.


METAR-TAF: